createdAt,value
2018-12-07T00:00:05.605Z,9.80
2018-12-07T00:02:33.136Z,9.80
2018-12-07T00:05:00.644Z,9.80
2018-12-07T00:07:28.089Z,9.80
2018-12-07T00:09:58.702Z,9.70
2018-12-07T00:12:26.159Z,9.70
2018-12-07T00:14:53.594Z,9.70
2018-12-07T00:17:21.133Z,9.70
2018-12-07T00:19:49.489Z,9.70
2018-12-07T00:22:16.969Z,9.70
2018-12-07T00:24:44.418Z,9.80
2018-12-07T00:27:11.900Z,9.70
2018-12-07T00:29:39.406Z,9.80
2018-12-07T00:32:06.937Z,9.70
2018-12-07T00:34:34.527Z,9.70
2018-12-07T00:37:02.262Z,9.70
2018-12-07T00:39:29.853Z,9.70
2018-12-07T00:41:57.936Z,9.70
2018-12-07T00:44:25.555Z,9.70
2018-12-07T00:46:53.026Z,9.70
2018-12-07T00:49:20.490Z,9.70
2018-12-07T00:51:48.141Z,9.70
2018-12-07T00:54:15.574Z,9.70
2018-12-07T00:56:46.848Z,9.80
2018-12-07T00:59:14.308Z,9.80
2018-12-07T01:01:41.931Z,9.80
2018-12-07T01:04:09.474Z,9.80
2018-12-07T01:06:36.981Z,9.80
2018-12-07T01:09:05.813Z,9.80
2018-12-07T01:11:33.259Z,9.80
2018-12-07T01:14:00.891Z,9.80
2018-12-07T01:16:28.323Z,9.80
2018-12-07T01:18:55.819Z,9.80
2018-12-07T01:21:23.381Z,9.90
2018-12-07T01:23:50.818Z,9.90
2018-12-07T01:26:21.437Z,9.90
2018-12-07T01:28:48.883Z,9.90
2018-12-07T01:31:16.344Z,9.90
2018-12-07T01:33:45.042Z,9.90
2018-12-07T01:36:12.517Z,9.90
2018-12-07T01:38:40.111Z,9.90
2018-12-07T01:41:07.786Z,9.90
2018-12-07T01:43:35.277Z,9.90
2018-12-07T01:46:02.740Z,10.00
2018-12-07T01:48:30.203Z,10.00
2018-12-07T01:50:58.562Z,10.00
2018-12-07T01:53:26.079Z,10.00
2018-12-07T01:55:53.561Z,10.00
2018-12-07T01:58:21.117Z,10.00
2018-12-07T02:00:48.773Z,10.00
2018-12-07T02:03:16.213Z,10.00
2018-12-07T02:05:43.761Z,10.00
2018-12-07T02:08:12.213Z,10.00
2018-12-07T02:10:39.689Z,10.10
2018-12-07T02:13:07.220Z,10.10
2018-12-07T02:15:34.893Z,10.10
2018-12-07T02:18:02.397Z,10.10
2018-12-07T02:20:29.863Z,10.10
2018-12-07T02:22:57.379Z,10.10
2018-12-07T02:25:25.376Z,10.10
2018-12-07T02:28:02.262Z,10.10
2018-12-07T02:30:30.342Z,10.20
2018-12-07T02:32:58.150Z,10.20
2018-12-07T02:35:26.793Z,10.20
2018-12-07T02:37:54.359Z,10.20
2018-12-07T02:40:21.826Z,10.20
2018-12-07T02:42:53.035Z,10.20
2018-12-07T02:45:21.423Z,10.20
2018-12-07T02:47:49.043Z,10.20
2018-12-07T02:50:16.616Z,10.20
2018-12-07T02:52:44.089Z,10.30
2018-12-07T02:55:11.637Z,10.30
2018-12-07T02:57:39.090Z,10.30
2018-12-07T03:00:07.414Z,10.30
2018-12-07T03:02:35.669Z,10.30
2018-12-07T03:05:03.158Z,10.40
2018-12-07T03:07:30.601Z,10.40
2018-12-07T03:09:58.158Z,10.40
2018-12-07T03:12:26.347Z,10.40
2018-12-07T03:14:54.540Z,10.40
2018-12-07T03:17:22.074Z,10.40
2018-12-07T03:19:49.823Z,10.40
2018-12-07T03:24:56.206Z,10.40
2018-12-07T03:27:23.657Z,10.40
2018-12-07T03:29:51.485Z,10.40
2018-12-07T03:32:18.920Z,10.40
2018-12-07T03:34:46.461Z,10.40
2018-12-07T03:37:14.809Z,10.40
2018-12-07T03:39:42.318Z,10.40
2018-12-07T03:42:09.789Z,10.30
2018-12-07T03:44:37.302Z,10.30
2018-12-07T03:47:04.798Z,10.30
2018-12-07T03:49:32.306Z,10.30
2018-12-07T03:51:59.750Z,10.30
2018-12-07T03:54:27.218Z,10.30
2018-12-07T03:56:54.926Z,10.30
2018-12-07T03:59:23.666Z,10.30
2018-12-07T04:01:51.137Z,10.30
2018-12-07T04:06:55.686Z,10.30
2018-12-07T04:09:24.243Z,10.30
2018-12-07T04:11:51.884Z,10.30
2018-12-07T04:14:19.362Z,10.40
2018-12-07T04:16:46.795Z,10.30
2018-12-07T04:19:14.329Z,10.40
2018-12-07T04:21:41.998Z,10.40
2018-12-07T04:24:09.749Z,10.30
2018-12-07T04:26:38.049Z,10.30
2018-12-07T04:29:07.527Z,10.30
2018-12-07T04:31:34.981Z,10.30
2018-12-07T04:34:02.612Z,10.40
2018-12-07T04:36:30.107Z,10.40
2018-12-07T04:38:57.554Z,10.40
2018-12-07T04:41:25.123Z,10.40
2018-12-07T04:43:52.689Z,10.40
2018-12-07T04:46:24.615Z,10.40
2018-12-07T04:48:52.146Z,10.40
2018-12-07T04:51:19.655Z,10.40
2018-12-07T04:53:47.135Z,10.50
2018-12-07T04:56:14.602Z,10.40
2018-12-07T04:58:42.060Z,10.50
2018-12-07T05:01:09.534Z,10.50
2018-12-07T05:03:37.010Z,10.50
2018-12-07T05:06:04.494Z,10.50
2018-12-07T05:08:32.085Z,10.50
2018-12-07T05:11:00.612Z,10.50
2018-12-07T05:13:28.219Z,10.50
2018-12-07T05:15:55.686Z,10.50
2018-12-07T05:18:23.396Z,10.60
2018-12-07T05:20:50.905Z,10.60
2018-12-07T05:23:19.398Z,10.70
2018-12-07T05:25:46.883Z,10.60
2018-12-07T05:28:14.439Z,10.60
2018-12-07T05:30:46.573Z,10.60
2018-12-07T05:33:14.636Z,10.60
2018-12-07T05:35:42.204Z,10.70
2018-12-07T05:38:10.040Z,10.70
2018-12-07T05:40:37.450Z,10.70
2018-12-07T05:43:04.949Z,10.70
2018-12-07T05:45:33.326Z,10.70
2018-12-07T05:48:00.864Z,10.70
2018-12-07T05:50:28.315Z,10.80
2018-12-07T05:52:55.763Z,10.80
2018-12-07T05:55:23.294Z,10.80
2018-12-07T05:57:50.810Z,10.80
2018-12-07T06:00:18.378Z,10.80
2018-12-07T06:02:46.017Z,10.80
2018-12-07T06:05:13.505Z,10.80
2018-12-07T06:07:41.723Z,10.80
2018-12-07T06:10:09.281Z,10.90
2018-12-07T06:12:36.746Z,10.90
2018-12-07T06:15:04.798Z,10.90
2018-12-07T06:17:32.315Z,10.90
2018-12-07T06:20:00.696Z,10.90
2018-12-07T06:22:28.261Z,10.90
2018-12-07T06:24:55.710Z,10.90
2018-12-07T06:27:23.180Z,10.90
2018-12-07T06:29:51.226Z,11.00
2018-12-07T06:32:18.832Z,11.00
2018-12-07T06:34:46.289Z,11.00
2018-12-07T06:37:14.972Z,11.00
2018-12-07T06:39:42.479Z,11.00
2018-12-07T06:42:09.991Z,11.00
2018-12-07T06:44:37.430Z,11.00
2018-12-07T06:47:08.174Z,11.00
2018-12-07T06:49:35.737Z,11.00
2018-12-07T06:52:04.390Z,11.10
2018-12-07T06:54:31.882Z,11.00
2018-12-07T06:56:59.354Z,11.00
2018-12-07T06:59:26.818Z,11.00
2018-12-07T07:01:57.740Z,11.10
2018-12-07T07:04:25.184Z,11.00
2018-12-07T07:06:53.881Z,11.00
2018-12-07T07:09:21.339Z,11.00
2018-12-07T07:11:48.792Z,11.00
2018-12-07T07:14:16.558Z,11.10
2018-12-07T07:16:44.017Z,11.10
2018-12-07T07:19:12.478Z,11.10
2018-12-07T07:21:40.173Z,11.00
2018-12-07T07:24:07.710Z,11.10
2018-12-07T07:26:35.179Z,11.10
2018-12-07T07:29:02.662Z,11.10
2018-12-07T07:31:30.398Z,11.10
2018-12-07T07:33:57.855Z,11.00
2018-12-07T07:36:25.342Z,11.10
2018-12-07T07:38:52.784Z,11.00
2018-12-07T07:41:21.193Z,11.10
2018-12-07T07:43:48.623Z,11.10
2018-12-07T07:46:16.132Z,11.10
2018-12-07T07:48:43.599Z,11.10
2018-12-07T07:51:11.076Z,11.10
2018-12-07T07:53:38.491Z,11.10
2018-12-07T07:56:06.090Z,11.10
2018-12-07T07:58:34.828Z,11.10
2018-12-07T08:01:02.296Z,11.10
2018-12-07T08:03:29.758Z,11.10
2018-12-07T08:05:57.246Z,11.10
2018-12-07T08:08:24.734Z,11.20
2018-12-07T08:10:52.193Z,11.20
2018-12-07T08:13:19.658Z,11.20
2018-12-07T08:15:50.740Z,11.30
2018-12-07T08:18:18.597Z,11.30
2018-12-07T08:20:46.110Z,11.30
2018-12-07T08:23:14.920Z,11.30
2018-12-07T08:25:42.969Z,11.30
2018-12-07T08:28:10.603Z,11.40
2018-12-07T08:30:38.118Z,11.40
2018-12-07T08:33:05.722Z,11.40
2018-12-07T08:35:33.190Z,11.40
2018-12-07T08:38:00.762Z,11.40
2018-12-07T08:40:28.329Z,11.40
2018-12-07T08:42:56.794Z,11.40
2018-12-07T08:45:24.280Z,11.50
2018-12-07T08:47:51.812Z,11.50
2018-12-07T08:50:19.243Z,11.50
2018-12-07T08:52:46.736Z,11.50
2018-12-07T08:55:14.295Z,11.50
2018-12-07T08:57:41.750Z,11.60
2018-12-07T09:00:09.310Z,11.60
2018-12-07T09:02:36.770Z,11.70
2018-12-07T09:05:05.059Z,11.80
2018-12-07T09:07:32.530Z,11.90
2018-12-07T09:10:00.080Z,12.00
2018-12-07T09:12:27.574Z,12.00
2018-12-07T09:14:55.029Z,12.10
2018-12-07T09:17:22.493Z,12.10
2018-12-07T09:19:49.942Z,12.20
2018-12-07T09:22:17.725Z,12.20
2018-12-07T09:24:45.174Z,12.10
2018-12-07T09:27:13.476Z,12.20
2018-12-07T09:29:41.051Z,12.20
2018-12-07T09:32:08.594Z,12.30
2018-12-07T09:34:40.442Z,12.30
2018-12-07T09:37:08.325Z,12.40
2018-12-07T09:39:35.781Z,12.40
2018-12-07T09:42:03.226Z,12.40
2018-12-07T09:44:30.885Z,12.50
2018-12-07T09:46:58.328Z,12.50
2018-12-07T09:49:26.092Z,12.60
2018-12-07T09:51:53.526Z,12.70
2018-12-07T09:54:21.787Z,12.70
2018-12-07T09:56:49.504Z,12.70
2018-12-07T09:59:16.999Z,12.60
2018-12-07T10:01:44.483Z,12.50
2018-12-07T10:04:11.939Z,12.40
2018-12-07T10:06:39.429Z,12.40
2018-12-07T10:09:07.676Z,12.40
2018-12-07T10:11:36.206Z,12.30
2018-12-07T10:14:03.736Z,12.20
2018-12-07T10:16:31.218Z,12.20
2018-12-07T10:18:58.666Z,12.20
2018-12-07T10:21:29.840Z,12.30
2018-12-07T10:23:57.979Z,12.30
2018-12-07T10:26:25.497Z,12.40
2018-12-07T10:28:52.996Z,12.40
2018-12-07T10:31:20.453Z,12.40
2018-12-07T10:33:47.911Z,12.40
2018-12-07T10:36:15.364Z,12.50
2018-12-07T10:38:42.863Z,12.70
2018-12-07T10:41:10.293Z,12.80
2018-12-07T10:43:38.683Z,12.90
2018-12-07T10:46:06.157Z,13.00
2018-12-07T10:48:33.851Z,12.90
2018-12-07T10:51:07.725Z,13.00
2018-12-07T10:53:31.143Z,12.90
2018-12-07T10:55:58.594Z,12.90
2018-12-07T10:58:26.176Z,12.90
2018-12-07T11:00:59.362Z,13.00
2018-12-07T11:03:32.527Z,13.00
2018-12-07T11:06:10.149Z,13.00
2018-12-07T11:08:43.338Z,12.90
2018-12-07T11:11:17.014Z,12.80
2018-12-07T11:13:50.159Z,12.80
2018-12-07T11:16:23.381Z,12.80
2018-12-07T11:18:56.606Z,12.90
2018-12-07T11:21:37.497Z,13.00
2018-12-07T11:24:10.669Z,13.00
2018-12-07T11:26:43.724Z,13.00
2018-12-07T11:29:14.039Z,13.00
2018-12-07T11:31:43.450Z,13.00
2018-12-07T11:34:13.106Z,13.10
2018-12-07T11:36:40.562Z,13.10
2018-12-07T11:39:08.629Z,13.10
2018-12-07T11:41:36.084Z,13.20
2018-12-07T11:44:03.600Z,13.20
2018-12-07T11:46:31.106Z,13.10
2018-12-07T11:48:58.582Z,13.20
2018-12-07T11:51:26.356Z,13.30
2018-12-07T11:53:53.818Z,13.20
2018-12-07T11:56:21.786Z,13.20
2018-12-07T11:58:49.299Z,13.20
2018-12-07T12:01:16.774Z,13.20
2018-12-07T12:03:44.241Z,13.20
2018-12-07T12:06:11.693Z,13.20
2018-12-07T12:08:42.866Z,13.10
2018-12-07T12:11:11.338Z,13.10
2018-12-07T12:13:38.779Z,13.10
2018-12-07T12:16:06.299Z,13.20
2018-12-07T12:18:34.190Z,13.30
2018-12-07T12:21:01.665Z,13.30
2018-12-07T12:23:29.158Z,13.40
2018-12-07T12:25:56.591Z,13.50
2018-12-07T12:28:24.087Z,13.40
2018-12-07T12:30:51.556Z,13.40
2018-12-07T12:33:20.026Z,13.30
2018-12-07T12:35:47.533Z,13.20
2018-12-07T12:38:18.325Z,13.10
2018-12-07T12:40:45.873Z,13.10
2018-12-07T12:43:13.343Z,13.00
2018-12-07T12:45:40.920Z,13.00
2018-12-07T12:48:09.520Z,13.00
2018-12-07T12:50:36.958Z,12.90
2018-12-07T12:53:07.504Z,12.80
2018-12-07T12:55:34.979Z,12.80
2018-12-07T12:58:02.438Z,12.80
2018-12-07T13:00:30.079Z,12.80
2018-12-07T13:02:57.547Z,12.70
2018-12-07T13:05:25.013Z,12.70
2018-12-07T13:07:53.215Z,12.60
2018-12-07T13:10:20.820Z,12.60
2018-12-07T13:12:48.300Z,12.60
2018-12-07T13:15:15.757Z,12.60
2018-12-07T13:17:43.209Z,12.50
2018-12-07T13:20:10.967Z,12.50
2018-12-07T13:22:38.798Z,12.50
2018-12-07T13:25:07.019Z,12.50
2018-12-07T13:27:34.698Z,12.40
2018-12-07T13:30:02.181Z,12.40
2018-12-07T13:32:29.622Z,12.40
2018-12-07T13:34:57.103Z,12.30
2018-12-07T13:37:24.561Z,12.40
2018-12-07T13:39:52.120Z,12.30
2018-12-07T13:42:19.909Z,12.40
2018-12-07T13:44:47.561Z,12.30
2018-12-07T13:47:15.299Z,12.30
2018-12-07T13:49:43.027Z,12.30
2018-12-07T13:52:11.125Z,12.30
2018-12-07T13:54:38.758Z,12.30
2018-12-07T13:57:06.657Z,12.20
2018-12-07T13:59:35.920Z,12.20
2018-12-07T14:02:03.795Z,12.10
2018-12-07T14:04:31.572Z,12.10
2018-12-07T14:06:59.703Z,12.00
2018-12-07T14:09:27.460Z,12.00
2018-12-07T14:11:55.104Z,11.90
2018-12-07T14:14:23.804Z,11.90
2018-12-07T14:16:51.579Z,11.90
2018-12-07T14:19:19.190Z,11.90
2018-12-07T14:21:46.732Z,11.90
2018-12-07T14:24:14.361Z,11.90
2018-12-07T14:26:41.850Z,11.90
2018-12-07T14:29:09.636Z,11.80
2018-12-07T14:31:37.789Z,11.80
2018-12-07T14:34:05.396Z,11.70
2018-12-07T14:36:32.884Z,11.70
2018-12-07T14:39:00.496Z,11.60
2018-12-07T14:41:28.197Z,11.50
2018-12-07T14:43:56.863Z,11.50
2018-12-07T14:46:24.568Z,11.40
2018-12-07T14:48:52.670Z,11.30
2018-12-07T14:51:21.302Z,11.20
2018-12-07T14:53:49.228Z,11.10
2018-12-07T14:56:16.810Z,11.10
2018-12-07T14:58:44.381Z,11.00
2018-12-07T15:01:12.457Z,11.00
2018-12-07T15:03:41.322Z,10.90
2018-12-07T15:06:09.296Z,10.80
2018-12-07T15:08:37.222Z,10.80
2018-12-07T15:11:05.341Z,10.90
2018-12-07T15:13:33.227Z,10.90
2018-12-07T15:16:00.985Z,11.00
2018-12-07T15:18:28.826Z,11.00
2018-12-07T15:20:57.010Z,11.00
2018-12-07T15:23:25.035Z,11.00
2018-12-07T15:25:56.259Z,11.00
2018-12-07T15:28:24.009Z,10.90
2018-12-07T15:30:51.451Z,10.80
2018-12-07T15:33:19.230Z,10.90
2018-12-07T15:35:47.209Z,10.80
2018-12-07T15:38:14.867Z,10.60
2018-12-07T15:40:46.400Z,10.60
2018-12-07T15:45:53.264Z,10.50
2018-12-07T15:48:21.958Z,10.50
2018-12-07T15:50:49.734Z,10.50
2018-12-07T15:53:17.675Z,10.50
2018-12-07T15:58:25.964Z,10.50
2018-12-07T16:00:53.692Z,10.50
2018-12-07T16:03:22.732Z,10.40
2018-12-07T16:05:51.187Z,10.40
2018-12-07T16:10:57.699Z,10.20
2018-12-07T16:13:25.561Z,10.10
2018-12-07T16:15:53.928Z,10.00
2018-12-07T16:21:01.057Z,9.80
2018-12-07T16:23:29.779Z,9.60
2018-12-07T16:25:57.925Z,9.60
2018-12-07T16:28:25.676Z,9.50
2018-12-07T16:30:53.387Z,9.60
2018-12-07T16:33:22.066Z,9.70
2018-12-07T16:35:50.967Z,9.80
2018-12-07T16:38:18.540Z,9.80
2018-12-07T16:43:25.195Z,10.00
2018-12-07T16:45:53.243Z,10.10
2018-12-07T16:48:21.955Z,10.10
2018-12-07T16:50:50.293Z,10.10
2018-12-07T16:53:18.173Z,10.10
2018-12-07T16:55:46.849Z,10.10
2018-12-07T16:58:14.813Z,10.20
2018-12-07T17:00:42.769Z,10.20
2018-12-07T17:05:56.436Z,10.20
2018-12-07T17:08:24.207Z,10.20
2018-12-07T17:10:51.915Z,10.20
2018-12-07T17:13:19.853Z,10.20
2018-12-07T17:15:47.753Z,10.20
2018-12-07T17:18:16.036Z,10.20
2018-12-07T17:20:43.697Z,10.10
2018-12-07T17:23:11.516Z,10.10
2018-12-07T17:25:39.367Z,10.10
2018-12-07T17:28:11.645Z,10.10
2018-12-07T17:30:39.315Z,10.10
2018-12-07T17:33:07.642Z,10.10
2018-12-07T17:35:35.436Z,10.10
2018-12-07T17:38:03.434Z,10.10
2018-12-07T17:40:32.340Z,10.10
2018-12-07T17:43:00.102Z,10.10
2018-12-07T17:45:27.691Z,10.20
2018-12-07T17:47:55.614Z,10.20
2018-12-07T17:50:23.429Z,10.20
2018-12-07T17:52:52.063Z,10.20
2018-12-07T17:55:19.920Z,10.20
2018-12-07T17:57:51.805Z,10.20
2018-12-07T18:00:19.343Z,10.20
2018-12-07T18:02:46.863Z,10.20
2018-12-07T18:05:14.768Z,10.30
2018-12-07T18:07:42.527Z,10.30
2018-12-07T18:10:10.054Z,10.30
2018-12-07T18:12:37.680Z,10.30
2018-12-07T18:15:06.792Z,10.30
2018-12-07T18:17:34.648Z,10.20
2018-12-07T18:20:02.471Z,10.20
2018-12-07T18:22:30.685Z,10.10
2018-12-07T18:24:58.370Z,10.10
2018-12-07T18:27:26.188Z,10.10
2018-12-07T18:29:53.695Z,10.00
2018-12-07T18:32:21.375Z,10.00
2018-12-07T18:34:49.670Z,10.00
2018-12-07T18:37:17.522Z,10.00
2018-12-07T18:39:45.261Z,10.00
2018-12-07T18:42:13.287Z,10.00
2018-12-07T18:44:41.009Z,10.00
2018-12-07T18:47:09.263Z,10.00
2018-12-07T18:49:36.994Z,10.10
2018-12-07T18:52:04.968Z,10.00
2018-12-07T18:54:32.561Z,10.00
2018-12-07T18:57:00.426Z,10.00
2018-12-07T18:59:28.567Z,10.00
2018-12-07T19:01:56.509Z,10.00
2018-12-07T19:04:24.230Z,10.00
2018-12-07T19:06:52.910Z,9.90
2018-12-07T19:09:20.896Z,9.90
2018-12-07T19:11:48.594Z,9.90
2018-12-07T19:14:16.226Z,9.90
2018-12-07T19:16:44.059Z,9.90
2018-12-07T19:19:12.868Z,9.90
2018-12-07T19:21:40.637Z,9.90
2018-12-07T19:24:08.438Z,9.90
2018-12-07T19:26:36.802Z,9.90
2018-12-07T19:29:04.458Z,9.90
2018-12-07T19:31:32.312Z,9.90
2018-12-07T19:34:00.170Z,9.90
2018-12-07T19:36:27.960Z,9.90
2018-12-07T19:38:56.842Z,9.90
2018-12-07T19:41:24.639Z,9.80
2018-12-07T19:43:52.432Z,9.80
2018-12-07T19:48:54.774Z,9.70
2018-12-07T19:51:22.516Z,9.60
2018-12-07T19:53:50.374Z,9.60
2018-12-07T19:56:18.076Z,9.60
2018-12-07T19:58:46.725Z,9.60
2018-12-07T20:01:14.612Z,9.60
2018-12-07T20:03:42.164Z,9.60
2018-12-07T20:06:10.678Z,9.60
2018-12-07T20:08:38.520Z,9.60
2018-12-07T20:11:06.154Z,9.60
2018-12-07T20:13:33.682Z,9.70
2018-12-07T20:16:01.490Z,9.70
2018-12-07T20:18:29.142Z,9.70
2018-12-07T20:20:56.741Z,9.70
2018-12-07T20:23:24.960Z,9.70
2018-12-07T20:25:52.532Z,9.70
2018-12-07T20:28:20.190Z,9.70
2018-12-07T20:30:47.815Z,9.70
2018-12-07T20:33:15.509Z,9.70
2018-12-07T20:35:43.745Z,9.60
2018-12-07T20:38:11.452Z,9.60
2018-12-07T20:40:39.365Z,9.70
2018-12-07T20:43:07.054Z,9.70
2018-12-07T20:45:46.806Z,9.80
2018-12-07T20:48:15.684Z,9.80
2018-12-07T20:50:43.499Z,9.80
2018-12-07T20:53:11.684Z,9.80
2018-12-07T20:55:40.085Z,9.80
2018-12-07T20:58:07.728Z,9.80
2018-12-07T21:00:46.278Z,9.90
2018-12-07T21:03:13.986Z,9.90
2018-12-07T21:08:58.782Z,9.80
2018-12-07T21:11:26.719Z,9.70
2018-12-07T21:14:07.007Z,9.70
2018-12-07T21:16:52.385Z,9.70
2018-12-07T21:19:20.238Z,9.60
2018-12-07T21:21:48.591Z,9.60
2018-12-07T21:24:16.230Z,9.70
2018-12-07T21:26:43.759Z,9.70
2018-12-07T21:29:12.033Z,9.80
2018-12-07T21:31:39.695Z,9.90
2018-12-07T21:34:23.625Z,9.90
2018-12-07T21:36:51.490Z,9.90
2018-12-07T21:39:22.177Z,9.90
2018-12-07T21:41:50.363Z,9.90
2018-12-07T21:44:18.235Z,9.90
2018-12-07T21:46:46.158Z,9.90
2018-12-07T21:49:14.062Z,9.80
2018-12-07T21:52:01.592Z,9.80
2018-12-07T21:54:29.530Z,9.90
2018-12-07T21:56:57.975Z,9.80
2018-12-07T21:59:25.963Z,9.80
2018-12-07T22:01:53.858Z,9.80
2018-12-07T22:04:21.412Z,9.80
2018-12-07T22:06:49.305Z,9.80
2018-12-07T22:09:17.729Z,9.80
2018-12-07T22:11:47.047Z,9.70
2018-12-07T22:14:14.954Z,9.70
2018-12-07T22:16:42.698Z,9.70
2018-12-07T22:19:10.344Z,9.70
2018-12-07T22:21:37.993Z,9.70
2018-12-07T22:24:05.755Z,9.60
2018-12-07T22:26:33.703Z,9.60
2018-12-07T22:29:01.617Z,9.50
2018-12-07T22:31:29.317Z,9.40
2018-12-07T22:33:56.973Z,9.20
2018-12-07T22:36:25.097Z,9.20
2018-12-07T22:38:52.780Z,9.00
2018-12-07T22:41:21.287Z,9.10
2018-12-07T22:43:49.094Z,9.10
2018-12-07T22:46:17.081Z,9.10
2018-12-07T22:48:46.142Z,9.10
2018-12-07T22:51:13.803Z,9.10
2018-12-07T22:53:41.273Z,9.10
2018-12-07T22:56:08.869Z,9.00
2018-12-07T22:58:36.431Z,8.90
2018-12-07T23:01:04.578Z,8.70
2018-12-07T23:03:32.021Z,8.60
2018-12-07T23:05:59.637Z,8.40
2018-12-07T23:08:27.478Z,8.30
2018-12-07T23:10:54.973Z,8.20
2018-12-07T23:13:25.695Z,8.10
2018-12-07T23:15:51.897Z,8.10
2018-12-07T23:18:19.342Z,8.00
2018-12-07T23:20:46.810Z,7.90
2018-12-07T23:23:14.245Z,7.90
2018-12-07T23:25:41.832Z,7.90
2018-12-07T23:28:09.943Z,7.90
2018-12-07T23:30:37.569Z,7.80
2018-12-07T23:33:08.694Z,7.90
2018-12-07T23:35:36.150Z,7.90
2018-12-07T23:38:03.822Z,7.80
2018-12-07T23:40:31.478Z,7.70
2018-12-07T23:43:00.890Z,7.70
2018-12-07T23:45:28.550Z,7.60
2018-12-07T23:47:56.586Z,7.60
2018-12-07T23:50:24.353Z,7.50
2018-12-07T23:52:52.118Z,7.50
2018-12-07T23:55:19.796Z,7.50
2018-12-07T23:57:47.497Z,7.50
